Time;durP1;ratioP1;P1;durP2;ratioP2;P2;SDS_P1;SDS_P2;PMS_P1;PMS_P2;Temp;Humidity;BMP_temperature;BMP_pressure;BME280_temperature;BME280_humidity;BME280_pressure;Samples;Min_cycle;Max_cycle;Signal;HPM_P1;HPM_P2
2021/10/23 00:01:56;;;;;;;37.25;25.05;;;384.10;2329.60;;;;;;5058050;28;20094;-80
2021/10/23 00:04:22;;;;;;;37.90;24.35;;;384.00;2329.60;;;;;;5053837;28;20136;-81
2021/10/23 00:06:47;;;;;;;38.97;27.20;;;384.00;2329.60;;;;;;5054238;28;20029;-81
2021/10/23 00:09:13;;;;;;;39.83;27.00;;;359.30;2329.60;;;;;;5053514;28;20029;-80
2021/10/23 00:11:39;;;;;;;43.22;27.58;;;359.30;2329.60;;;;;;5053612;28;20447;-81
2021/10/23 00:14:04;;;;;;;41.97;26.98;;;359.30;2329.60;;;;;;5053423;28;20021;-81
2021/10/23 00:16:30;;;;;;;39.30;25.80;;;359.30;2329.60;;;;;;5053568;28;20510;-80
2021/10/23 00:18:56;;;;;;;40.45;27.33;;;359.30;2329.60;;;;;;5054372;28;20025;-80
2021/10/23 00:21:22;;;;;;;36.85;25.02;;;359.30;2329.60;;;;;;5055711;28;20051;-81
2021/10/23 00:23:47;;;;;;;52.00;26.88;;;359.30;2329.60;;;;;;5053455;28;20052;-80
2021/10/23 00:26:13;;;;;;;36.38;25.52;;;359.30;2329.60;;;;;;5061406;28;20036;-80
2021/10/23 00:28:40;;;;;;;42.42;28.83;;;359.20;2329.60;;;;;;5052481;28;21475;-80
2021/10/23 00:31:06;;;;;;;40.72;26.30;;;359.20;2329.60;;;;;;5053503;28;20368;-78
2021/10/23 00:33:32;;;;;;;43.08;27.70;;;359.20;2329.60;;;;;;5053885;28;20051;-81
2021/10/23 00:35:58;;;;;;;48.55;27.95;;;359.30;2329.60;;;;;;5049924;28;20029;-81
2021/10/23 00:38:23;;;;;;;43.88;26.85;;;359.30;2329.60;;;;;;5052609;28;20059;-81
2021/10/23 00:40:49;;;;;;;39.03;28.70;;;359.30;2329.60;;;;;;5054944;28;20392;-81
2021/10/23 00:43:15;;;;;;;36.13;26.20;;;359.20;2329.60;;;;;;5053436;28;20025;-82
2021/10/23 00:45:41;;;;;;;40.50;27.38;;;359.20;2329.60;;;;;;5052394;28;20039;-81
2021/10/23 00:48:06;;;;;;;41.22;26.10;;;359.20;2329.60;;;;;;5055385;28;20032;-81
2021/10/23 00:50:32;;;;;;;40.63;26.77;;;359.20;2329.60;;;;;;5054751;28;20392;-81
2021/10/23 00:52:58;;;;;;;38.63;27.25;;;359.20;2329.60;;;;;;5052893;28;20025;-82
2021/10/23 00:55:24;;;;;;;38.70;24.65;;;359.20;2329.60;;;;;;5052590;28;20053;-81
2021/10/23 00:57:50;;;;;;;41.10;26.02;;;359.20;2329.60;;;;;;5053010;28;20025;-81
2021/10/23 01:00:16;;;;;;;36.38;25.80;;;359.20;2329.60;;;;;;5053639;28;20040;-81
2021/10/23 01:02:42;;;;;;;40.88;25.52;;;359.20;2329.60;;;;;;5054549;28;20068;-81
2021/10/23 01:05:09;;;;;;;34.70;25.73;;;359.20;2329.60;;;;;;5053943;28;20052;-82
2021/10/23 01:07:36;;;;;;;34.28;25.13;;;359.20;2329.60;;;;;;5054483;28;20029;-81
2021/10/23 01:10:08;;;;;;;38.72;25.85;;;359.20;2329.60;;;;;;5058899;28;20021;-82
2021/10/23 01:12:35;;;;;;;42.40;26.42;;;359.20;2329.60;;;;;;5049112;28;20065;-81
2021/10/23 01:15:16;;;;;;;38.47;24.92;;;359.10;2329.60;;;;;;5045120;28;20048;-81
2021/10/23 01:17:42;;;;;;;45.88;26.95;;;359.20;2329.60;;;;;;5052886;28;20049;-81
2021/10/23 01:20:08;;;;;;;41.67;27.60;;;359.20;2329.60;;;;;;5051844;28;20040;-81
2021/10/23 01:22:34;;;;;;;40.53;26.15;;;359.20;2329.60;;;;;;5051688;28;20037;-81
2021/10/23 01:25:00;;;;;;;41.50;27.77;;;359.20;2329.60;;;;;;5052244;28;20025;-81
2021/10/23 01:27:26;;;;;;;42.25;28.25;;;359.20;2329.60;;;;;;5053586;28;20507;-81
2021/10/23 01:29:51;;;;;;;47.22;29.95;;;359.20;2329.60;;;;;;5054167;28;20028;-80
2021/10/23 01:32:17;;;;;;;43.25;28.13;;;359.20;2329.60;;;;;;5053343;28;20037;-82
2021/10/23 01:34:43;;;;;;;43.10;29.77;;;359.20;2329.60;;;;;;5053276;28;20028;-81
2021/10/23 01:37:09;;;;;;;47.70;31.00;;;359.20;2329.60;;;;;;5051992;28;20032;-81
2021/10/23 01:39:35;;;;;;;54.13;31.88;;;359.20;2329.60;;;;;;5053862;28;20029;-82
2021/10/23 01:42:01;;;;;;;49.22;32.65;;;359.10;2329.60;;;;;;5059580;28;20029;-82
2021/10/23 01:44:30;;;;;;;48.45;31.83;;;359.10;2329.60;;;;;;5068949;28;20082;-81
2021/10/23 01:46:56;;;;;;;52.13;33.30;;;359.10;2329.60;;;;;;5054670;28;20103;-81
2021/10/23 01:49:22;;;;;;;47.83;32.35;;;359.10;2329.60;;;;;;5061040;28;20120;-81
2021/10/23 01:51:48;;;;;;;52.20;33.05;;;359.10;2329.60;;;;;;5051860;28;20066;-81
2021/10/23 01:54:14;;;;;;;50.95;32.72;;;359.20;2329.60;;;;;;5059282;28;20086;-81
2021/10/23 01:56:40;;;;;;;48.20;33.38;;;359.20;2329.60;;;;;;5051168;28;20396;-81
2021/10/23 01:59:07;;;;;;;52.85;34.30;;;359.10;2329.60;;;;;;5056753;28;20480;-79
2021/10/23 02:01:33;;;;;;;52.10;32.13;;;359.10;2329.60;;;;;;5050941;28;20131;-79
2021/10/23 02:03:59;;;;;;;47.78;31.38;;;359.10;2329.60;;;;;;5054767;28;20057;-80
2021/10/23 02:06:25;;;;;;;47.95;32.95;;;359.10;2329.60;;;;;;5050315;28;20090;-79
2021/10/23 02:08:51;;;;;;;50.53;33.45;;;359.00;2329.60;;;;;;5051019;28;20407;-78
2021/10/23 02:11:17;;;;;;;51.50;32.97;;;359.00;2329.60;;;;;;5049819;28;20483;-77
2021/10/23 02:13:44;;;;;;;48.08;32.42;;;359.00;2329.60;;;;;;5052786;28;20029;-74
2021/10/23 02:16:10;;;;;;;48.47;30.15;;;358.90;2329.60;;;;;;5059094;28;20117;-75
2021/10/23 02:18:36;;;;;;;36.95;24.85;;;358.80;2329.60;;;;;;5054011;28;20033;-76
2021/10/23 02:21:02;;;;;;;20.20;13.55;;;358.70;2329.60;;;;;;5071418;28;20136;-81
2021/10/23 02:23:28;;;;;;;15.02;11.25;;;358.40;2329.60;;;;;;5064628;28;20773;-81
2021/10/23 02:25:54;;;;;;;11.30;8.23;;;333.60;2329.60;;;;;;5072061;28;20035;-80
2021/10/23 02:28:20;;;;;;;13.15;9.25;;;333.40;2329.60;;;;;;5056793;28;20021;-79
2021/10/23 02:30:45;;;;;;;11.65;8.38;;;333.20;2329.60;;;;;;5080576;28;20375;-81
2021/10/23 02:33:11;;;;;;;14.30;8.25;;;333.00;2329.60;;;;;;5082130;28;20032;-80
2021/10/23 02:35:37;;;;;;;9.43;7.30;;;332.90;2329.60;;;;;;5072806;28;20025;-81
2021/10/23 02:38:03;;;;;;;13.52;6.32;;;332.80;2329.60;;;;;;5072327;28;20030;-81
2021/10/23 02:40:28;;;;;;;10.00;5.28;;;308.10;2304.00;;;;;;5070973;28;20082;-81
2021/10/23 02:42:54;;;;;;;7.95;3.60;;;307.90;2304.00;;;;;;5071573;28;20032;-81
2021/10/23 02:45:20;;;;;;;6.47;4.15;;;307.80;2304.00;;;;;;5054337;28;20464;-81
2021/10/23 02:47:46;;;;;;;11.98;4.45;;;307.70;2304.00;;;;;;5067586;28;20032;-78
2021/10/23 02:50:11;;;;;;;8.90;3.90;;;307.60;2304.00;;;;;;5072889;28;20073;-80
2021/10/23 02:52:37;;;;;;;8.07;4.38;;;307.50;2304.00;;;;;;5070734;28;20357;-79
2021/10/23 02:55:05;;;;;;;15.63;4.15;;;307.40;2304.00;;;;;;5068002;28;20028;-79
2021/10/23 02:57:30;;;;;;;6.38;3.90;;;307.30;2304.00;;;;;;5070064;28;20119;-83
2021/10/23 02:59:56;;;;;;;10.00;4.60;;;307.20;2304.00;;;;;;5073224;28;20151;-84
2021/10/23 03:02:22;;;;;;;10.93;4.10;;;307.20;2304.00;;;;;;5083174;28;20033;-81
2021/10/23 03:04:48;;;;;;;13.45;5.15;;;307.20;2304.00;;;;;;5069949;28;20035;-81
2021/10/23 03:07:13;;;;;;;11.55;4.30;;;307.20;2304.00;;;;;;5083843;28;20056;-84
2021/10/23 03:09:39;;;;;;;7.30;3.78;;;282.50;2278.40;;;;;;5081275;28;20035;-83
2021/10/23 03:12:05;;;;;;;9.57;3.78;;;282.40;2278.40;;;;;;5068327;28;20120;-82
2021/10/23 03:14:31;;;;;;;5.70;3.25;;;282.40;2278.40;;;;;;5063650;28;20024;-84
2021/10/23 03:16:57;;;;;;;7.60;4.13;;;282.40;2278.40;;;;;;5071155;28;20511;-86
2021/10/23 03:19:22;;;;;;;6.90;3.72;;;282.40;2278.40;;;;;;5088520;28;20137;-85
2021/10/23 03:21:48;;;;;;;7.15;4.93;;;282.30;2278.40;;;;;;5089910;28;20525;-85
2021/10/23 03:24:14;;;;;;;9.18;4.07;;;282.30;2278.40;;;;;;5070811;28;20040;-87
2021/10/23 03:26:39;;;;;;;10.45;3.92;;;282.30;2278.40;;;;;;5060366;28;20043;-84
2021/10/23 03:29:07;;;;;;;8.80;3.58;;;282.30;2278.40;;;;;;5065297;28;20043;-85
2021/10/23 03:31:33;;;;;;;12.57;4.10;;;282.30;2278.40;;;;;;5054174;28;20039;-85
2021/10/23 03:33:59;;;;;;;11.07;3.67;;;282.20;2278.40;;;;;;5071804;28;20025;-84
2021/10/23 03:36:25;;;;;;;7.65;3.92;;;282.20;2278.40;;;;;;5072054;28;20100;-85
2021/10/23 03:38:51;;;;;;;8.57;3.63;;;282.20;2278.40;;;;;;5057268;28;20107;-87
2021/10/23 03:41:16;;;;;;;12.32;4.75;;;282.20;2278.40;;;;;;5070482;28;20030;-87
2021/10/23 03:43:43;;;;;;;7.60;4.30;;;282.10;2278.40;;;;;;5074510;28;20077;-87
2021/10/23 03:46:09;;;;;;;6.07;3.65;;;282.10;2278.40;;;;;;5074979;28;20060;-86
2021/10/23 03:48:35;;;;;;;8.50;4.10;;;282.10;2278.40;;;;;;5074845;28;20052;-87
2021/10/23 03:51:00;;;;;;;5.18;3.75;;;282.00;2278.40;;;;;;5074626;28;20395;-85
2021/10/23 03:53:26;;;;;;;10.32;4.53;;;282.00;2278.40;;;;;;5074833;28;20012;-87
2021/10/23 03:55:52;;;;;;;8.30;4.35;;;282.00;2278.40;;;;;;5057981;28;20776;-86
2021/10/23 03:58:18;;;;;;;7.40;3.22;;;282.00;2278.40;;;;;;5075775;28;20490;-86
2021/10/23 04:00:44;;;;;;;9.18;3.92;;;281.90;2278.40;;;;;;5074224;28;20028;-86
2021/10/23 04:03:10;;;;;;;5.82;3.42;;;281.90;2278.40;;;;;;5055263;28;20029;-86
2021/10/23 04:05:35;;;;;;;8.98;4.75;;;281.80;2278.40;;;;;;5057245;28;20036;-88
2021/10/23 04:08:02;;;;;;;6.93;4.00;;;281.80;2278.40;;;;;;5075631;28;20024;-87
2021/10/23 04:10:28;;;;;;;6.07;3.90;;;281.90;2278.40;;;;;;5071452;28;20024;-86
2021/10/23 04:12:54;;;;;;;8.07;4.15;;;281.90;2278.40;;;;;;5057492;28;20099;-87
2021/10/23 04:15:19;;;;;;;11.43;4.40;;;281.90;2278.40;;;;;;5057755;28;20487;-86
2021/10/23 04:17:45;;;;;;;8.27;3.92;;;281.90;2278.40;;;;;;5075268;28;20039;-87
2021/10/23 04:20:12;;;;;;;8.20;4.40;;;281.90;2278.40;;;;;;5075293;28;20032;-87
2021/10/23 04:22:39;;;;;;;8.32;4.75;;;281.90;2278.40;;;;;;5075056;28;20025;-86
2021/10/23 04:25:06;;;;;;;10.35;4.07;;;281.90;2278.40;;;;;;5069270;28;20024;-87
2021/10/23 04:27:32;;;;;;;7.97;4.10;;;281.90;2278.40;;;;;;5060657;28;20088;-87
2021/10/23 04:29:58;;;;;;;9.80;3.45;;;281.80;2278.40;;;;;;5056409;28;20033;-86
2021/10/23 04:32:24;;;;;;;8.35;4.20;;;281.80;2278.40;;;;;;5063918;28;20025;-86
2021/10/23 04:34:50;;;;;;;7.88;3.83;;;281.90;2278.40;;;;;;5074000;28;20021;-85
2021/10/23 04:37:16;;;;;;;6.78;4.57;;;281.80;2278.40;;;;;;5073362;28;20032;-85
2021/10/23 04:39:42;;;;;;;7.15;4.95;;;281.80;2278.40;;;;;;5073559;28;20028;-85
2021/10/23 04:42:08;;;;;;;9.25;3.47;;;281.80;2278.40;;;;;;5073207;28;20043;-86
2021/10/23 04:44:33;;;;;;;10.57;3.88;;;281.80;2278.40;;;;;;5073599;28;20029;-85
2021/10/23 04:46:59;;;;;;;8.07;3.88;;;281.80;2278.40;;;;;;5073628;28;20036;-84
2021/10/23 04:49:25;;;;;;;8.15;3.58;;;281.80;2278.40;;;;;;5072337;28;20039;-86
2021/10/23 04:51:50;;;;;;;8.10;3.70;;;281.80;2278.40;;;;;;5073551;28;20020;-85
2021/10/23 04:54:16;;;;;;;8.95;3.70;;;281.80;2278.40;;;;;;5056427;28;20016;-85
2021/10/23 04:56:42;;;;;;;11.45;3.72;;;281.80;2278.40;;;;;;5074519;28;20095;-86
2021/10/23 04:59:08;;;;;;;9.38;3.60;;;281.80;2278.40;;;;;;5074177;28;20107;-85
2021/10/23 05:01:34;;;;;;;6.55;3.05;;;281.80;2278.40;;;;;;5065510;28;20029;-85
2021/10/23 05:04:00;;;;;;;6.68;3.50;;;281.70;2278.40;;;;;;5093284;28;20118;-86
2021/10/23 05:06:25;;;;;;;8.20;3.22;;;281.80;2278.40;;;;;;5063478;28;20399;-85
2021/10/23 05:08:51;;;;;;;6.13;2.95;;;281.80;2278.40;;;;;;5056379;28;20028;-87
2021/10/23 05:11:17;;;;;;;6.40;3.40;;;281.80;2278.40;;;;;;5061229;28;20467;-85
2021/10/23 05:13:43;;;;;;;5.55;3.47;;;281.80;2278.40;;;;;;5058326;28;20028;-85
2021/10/23 05:16:08;;;;;;;12.45;3.72;;;281.80;2278.40;;;;;;5063046;28;20075;-86
2021/10/23 05:18:34;;;;;;;5.43;3.92;;;281.90;2278.40;;;;;;5055944;28;20032;-86
2021/10/23 05:21:00;;;;;;;6.57;3.10;;;281.90;2278.40;;;;;;5055840;28;20056;-85
2021/10/23 05:23:25;;;;;;;8.40;3.75;;;281.90;2278.40;;;;;;5056358;28;20096;-85
2021/10/23 05:25:51;;;;;;;10.02;5.47;;;281.90;2278.40;;;;;;5055872;28;20020;-85
2021/10/23 05:28:17;;;;;;;37.40;20.48;;;281.90;2278.40;;;;;;5073756;28;20032;-85
2021/10/23 05:30:42;;;;;;;37.58;18.77;;;281.90;2278.40;;;;;;5073473;28;20035;-86
2021/10/23 05:33:08;;;;;;;18.75;10.27;;;281.90;2278.40;;;;;;5056384;28;20074;-87
2021/10/23 05:35:34;;;;;;;12.05;6.63;;;281.80;2278.40;;;;;;5055248;28;20044;-88
2021/10/23 05:38:00;;;;;;;7.22;4.38;;;281.90;2278.40;;;;;;5060173;28;20031;-87
2021/10/23 05:40:26;;;;;;;15.77;7.47;;;281.90;2278.40;;;;;;5056812;28;20028;-87
2021/10/23 05:42:51;;;;;;;22.10;11.25;;;281.90;2278.40;;;;;;5057700;28;20391;-87
2021/10/23 05:45:17;;;;;;;19.17;8.88;;;281.80;2278.40;;;;;;5056700;28;20075;-86
2021/10/23 05:47:43;;;;;;;36.03;15.38;;;281.80;2278.40;;;;;;5055934;28;20044;-87
2021/10/23 05:50:11;;;;;;;18.75;9.73;;;281.90;2278.40;;;;;;5064796;28;20020;-87
2021/10/23 05:52:37;;;;;;;13.93;6.45;;;281.90;2278.40;;;;;;5055348;28;20028;-87
2021/10/23 05:55:04;;;;;;;12.80;6.30;;;281.90;2278.40;;;;;;5075763;28;20028;-84
2021/10/23 05:57:30;;;;;;;15.27;8.57;;;282.00;2278.40;;;;;;5075142;28;20023;-85
2021/10/23 05:59:56;;;;;;;16.58;9.02;;;282.10;2278.40;;;;;;5056173;28;20466;-85
2021/10/23 06:02:25;;;;;;;14.48;8.40;;;282.10;2278.40;;;;;;5055074;28;20467;-85
2021/10/23 06:04:56;;;;;;;16.52;10.65;;;282.10;2278.40;;;;;;5073482;28;20013;-86
2021/10/23 06:07:27;;;;;;;17.60;9.30;;;282.20;2278.40;;;;;;5049521;28;20082;-86
2021/10/23 06:09:55;;;;;;;12.45;6.22;;;282.20;2278.40;;;;;;5055417;28;20059;-87
2021/10/23 06:12:21;;;;;;;51.13;21.75;;;282.20;2278.40;;;;;;5060469;28;20090;-85
2021/10/23 06:14:47;;;;;;;76.28;31.58;;;282.20;2278.40;;;;;;5072484;28;20024;-87
2021/10/23 06:17:12;;;;;;;28.60;14.02;;;282.10;2278.40;;;;;;5072688;28;20068;-87
2021/10/23 06:19:38;;;;;;;13.13;6.68;;;282.10;2278.40;;;;;;5054368;28;20723;-85
2021/10/23 06:22:06;;;;;;;12.25;5.45;;;282.10;2278.40;;;;;;5054455;28;20029;-88
2021/10/23 06:24:32;;;;;;;11.23;5.95;;;282.00;2278.40;;;;;;5054887;28;20024;-87
2021/10/23 06:26:58;;;;;;;7.80;4.13;;;282.10;2278.40;;;;;;5072423;28;20044;-87
2021/10/23 06:29:24;;;;;;;6.05;3.05;;;282.10;2278.40;;;;;;5069818;28;20072;-85
2021/10/23 06:31:50;;;;;;;6.60;4.05;;;282.10;2278.40;;;;;;5072429;28;20016;-87
2021/10/23 06:34:16;;;;;;;10.13;5.47;;;282.20;2278.40;;;;;;5054492;28;20028;-86
2021/10/23 06:36:42;;;;;;;8.70;4.25;;;282.30;2278.40;;;;;;5070565;28;20024;-85
2021/10/23 06:39:07;;;;;;;7.82;3.30;;;282.50;2278.40;;;;;;5072237;28;20141;-80
2021/10/23 06:41:35;;;;;;;9.57;4.93;;;307.20;2304.00;;;;;;5060814;28;20036;-82
2021/10/23 06:44:02;;;;;;;12.77;4.80;;;307.40;2304.00;;;;;;5073320;28;20052;-82
2021/10/23 06:46:28;;;;;;;11.35;5.20;;;307.70;2304.00;;;;;;5073282;28;20016;-83
2021/10/23 06:48:54;;;;;;;12.73;5.53;;;307.80;2304.00;;;;;;5072761;28;20043;-82
2021/10/23 06:51:19;;;;;;;10.88;5.57;;;308.10;2304.00;;;;;;5072525;28;20040;-81
2021/10/23 06:53:45;;;;;;;11.35;5.75;;;333.00;2329.60;;;;;;5072126;28;20046;-80
2021/10/23 06:56:11;;;;;;;7.07;4.22;;;333.20;2329.60;;;;;;5073215;28;20103;-79
2021/10/23 06:58:37;;;;;;;8.27;4.25;;;333.20;2329.60;;;;;;5060688;28;20086;-80
2021/10/23 07:01:04;;;;;;;8.65;4.72;;;333.30;2329.60;;;;;;5086056;28;20029;-79
2021/10/23 07:03:31;;;;;;;11.60;4.95;;;333.30;2329.60;;;;;;5079380;28;20399;-79
2021/10/23 07:05:57;;;;;;;12.65;5.45;;;333.30;2329.60;;;;;;5055348;28;20059;-82
2021/10/23 07:08:23;;;;;;;11.90;5.13;;;333.20;2329.60;;;;;;5039829;28;20068;-81
2021/10/23 07:10:48;;;;;;;11.90;5.18;;;333.30;2329.60;;;;;;5054671;28;20459;-82
2021/10/23 07:13:14;;;;;;;16.83;4.78;;;333.40;2329.60;;;;;;5066533;28;20073;-82
2021/10/23 07:15:40;;;;;;;13.48;5.78;;;333.30;2329.60;;;;;;5076927;28;20093;-80
2021/10/23 07:18:06;;;;;;;35.03;14.82;;;333.30;2329.60;;;;;;5057462;28;20036;-82
2021/10/23 07:20:32;;;;;;;29.08;12.75;;;333.20;2329.60;;;;;;5076452;28;20029;-79
2021/10/23 07:22:59;;;;;;;36.22;14.75;;;333.00;2329.60;;;;;;5064777;28;20031;-80
2021/10/23 07:25:26;;;;;;;13.27;7.22;;;332.80;2329.60;;;;;;5057849;28;20110;-80
2021/10/23 07:27:52;;;;;;;18.45;6.10;;;332.80;2329.60;;;;;;5088127;28;20084;-80
2021/10/23 07:30:17;;;;;;;8.90;5.38;;;308.10;2304.00;;;;;;5062404;28;20115;-80
2021/10/23 07:32:44;;;;;;;10.45;5.07;;;308.10;2304.00;;;;;;5059590;28;20020;-82
2021/10/23 07:35:11;;;;;;;10.18;5.63;;;308.10;2304.00;;;;;;5057515;28;20128;-80
2021/10/23 07:37:37;;;;;;;10.82;5.38;;;308.10;2304.00;;;;;;5075069;28;20024;-80
2021/10/23 07:40:05;;;;;;;14.20;5.60;;;332.80;2329.60;;;;;;5083474;28;20037;-79
2021/10/23 07:42:31;;;;;;;11.48;5.45;;;332.80;2329.60;;;;;;5047829;28;20029;-81
2021/10/23 07:44:58;;;;;;;11.68;6.90;;;332.90;2329.60;;;;;;5063392;28;20023;-79
2021/10/23 07:47:24;;;;;;;21.75;6.05;;;333.00;2329.60;;;;;;5074636;28;20444;-80
2021/10/23 07:49:50;;;;;;;10.13;5.85;;;333.00;2329.60;;;;;;5056423;28;20067;-81
2021/10/23 07:52:16;;;;;;;13.25;6.10;;;333.00;2329.60;;;;;;5058730;28;20479;-80
2021/10/23 07:54:42;;;;;;;18.02;5.93;;;333.10;2329.60;;;;;;5075720;28;20056;-84
2021/10/23 07:57:08;;;;;;;11.35;4.35;;;333.20;2329.60;;;;;;5061749;28;20047;-84
2021/10/23 07:59:34;;;;;;;14.52;7.00;;;333.20;2329.60;;;;;;5076025;28;20035;-83
2021/10/23 08:02:02;;;;;;;12.05;5.40;;;333.20;2329.60;;;;;;5057106;28;20119;-84
2021/10/23 08:04:29;;;;;;;9.93;4.57;;;333.10;2329.60;;;;;;5072325;28;20048;-84
2021/10/23 08:07:00;;;;;;;8.20;4.78;;;333.00;2329.60;;;;;;5078547;28;20060;-84
2021/10/23 08:09:43;;;;;;;16.83;10.15;;;333.00;2329.60;;;;;;5072134;28;20033;-82
2021/10/23 08:12:09;;;;;;;11.18;6.20;;;333.00;2329.60;;;;;;5073665;28;20119;-84
2021/10/23 08:14:36;;;;;;;8.48;5.10;;;333.00;2329.60;;;;;;5059068;28;20119;-83
2021/10/23 08:17:03;;;;;;;10.18;5.25;;;333.00;2329.60;;;;;;5058005;28;20123;-81
2021/10/23 08:19:29;;;;;;;8.65;4.03;;;333.10;2329.60;;;;;;5073969;28;20044;-82
2021/10/23 08:21:55;;;;;;;7.70;3.40;;;333.00;2329.60;;;;;;5056983;28;20047;-83
2021/10/23 08:24:21;;;;;;;5.05;2.70;;;333.00;2329.60;;;;;;5083858;28;20040;-83
2021/10/23 08:26:47;;;;;;;8.50;3.78;;;333.00;2329.60;;;;;;5067351;28;20034;-83
2021/10/23 08:29:14;;;;;;;9.95;4.70;;;333.00;2329.60;;;;;;5069884;28;20080;-84
2021/10/23 08:31:40;;;;;;;14.02;6.10;;;332.90;2329.60;;;;;;5056038;28;20037;-83
2021/10/23 08:34:06;;;;;;;16.08;5.30;;;332.90;2329.60;;;;;;5078431;28;20021;-83
2021/10/23 08:36:32;;;;;;;13.63;4.68;;;332.80;2329.60;;;;;;5058411;28;20104;-84
2021/10/23 08:38:58;;;;;;;8.50;4.93;;;332.80;2329.60;;;;;;5073578;28;20484;-83
2021/10/23 08:41:24;;;;;;;9.93;3.85;;;332.80;2329.60;;;;;;5074195;28;20029;-85
2021/10/23 08:43:53;;;;;;;13.80;4.35;;;332.90;2329.60;;;;;;5054991;28;20119;-85
2021/10/23 08:46:23;;;;;;;8.75;4.07;;;332.90;2329.60;;;;;;5055659;28;20037;-85
2021/10/23 08:48:51;;;;;;;10.38;4.05;;;332.90;2329.60;;;;;;5057880;28;20048;-84
2021/10/23 08:51:18;;;;;;;7.82;4.03;;;332.90;2329.60;;;;;;5053489;28;20033;-84
2021/10/23 08:53:44;;;;;;;12.38;5.05;;;333.00;2329.60;;;;;;5057140;28;20052;-84
2021/10/23 08:56:10;;;;;;;9.13;4.97;;;333.10;2329.60;;;;;;5074253;28;20055;-84
2021/10/23 08:58:37;;;;;;;11.10;4.53;;;333.10;2329.60;;;;;;5051483;28;20637;-84
2021/10/23 09:01:04;;;;;;;9.05;4.70;;;333.10;2329.60;;;;;;5054693;28;20024;-84
2021/10/23 09:03:30;;;;;;;20.45;7.63;;;333.20;2329.60;;;;;;5072699;28;20032;-81
2021/10/23 09:05:56;;;;;;;15.40;7.55;;;333.30;2329.60;;;;;;5071229;28;20040;-82
2021/10/23 09:08:22;;;;;;;11.50;4.65;;;333.30;2329.60;;;;;;5053364;28;20035;-82
2021/10/23 09:10:50;;;;;;;13.65;4.68;;;333.30;2329.60;;;;;;5053150;28;20021;-84
2021/10/23 09:13:31;;;;;;;10.80;5.43;;;333.30;2329.60;;;;;;5055912;28;20021;-83
2021/10/23 09:15:57;;;;;;;14.68;5.95;;;333.50;2329.60;;;;;;5055478;28;20068;-84
2021/10/23 09:18:43;;;;;;;13.07;6.13;;;358.40;2329.60;;;;;;5054297;28;20036;-79
2021/10/23 09:21:20;;;;;;;14.25;5.22;;;358.60;2329.60;;;;;;5054832;28;20052;-78
2021/10/23 09:23:47;;;;;;;12.02;6.10;;;358.70;2329.60;;;;;;5072802;28;20035;-77
2021/10/23 09:26:36;;;;;;;19.63;5.22;;;358.80;2329.60;;;;;;5072795;28;20094;-78
2021/10/23 09:29:20;;;;;;;10.18;4.72;;;358.80;2329.60;;;;;;5073295;28;20025;-76
2021/10/23 09:31:47;;;;;;;14.50;5.07;;;358.70;2329.60;;;;;;5052752;28;20036;-77
2021/10/23 09:34:18;;;;;;;14.88;6.60;;;358.80;2329.60;;;;;;5072959;28;20021;-77
2021/10/23 09:37:03;;;;;;;10.15;4.25;;;358.70;2329.60;;;;;;5074666;28;20016;-78
2021/10/23 09:39:34;;;;;;;9.32;4.70;;;358.70;2329.60;;;;;;5075721;28;20032;-79
2021/10/23 09:42:12;;;;;;;14.05;5.18;;;358.80;2329.60;;;;;;5073419;28;20032;-79
2021/10/23 09:45:04;;;;;;;12.70;4.05;;;358.90;2329.60;;;;;;5056364;28;20020;-80
2021/10/23 09:47:34;;;;;;;7.90;4.93;;;359.00;2329.60;;;;;;5088516;28;20552;-82
2021/10/23 09:50:21;;;;;;;15.95;5.88;;;359.20;2329.60;;;;;;5071206;28;20028;-81
2021/10/23 09:53:08;;;;;;;13.02;5.25;;;384.00;2329.60;;;;;;5049720;28;20020;-81
2021/10/23 09:55:49;;;;;;;9.68;4.53;;;384.10;2329.60;;;;;;5054869;28;20036;-81
2021/10/23 09:58:28;;;;;;;7.88;4.15;;;384.10;2329.60;;;;;;5069315;28;20024;-80
2021/10/23 10:00:55;;;;;;;8.07;4.05;;;384.00;2329.60;;;;;;5062988;28;20035;-81
2021/10/23 10:03:22;;;;;;;12.20;6.15;;;359.30;2329.60;;;;;;5053799;28;20032;-80
2021/10/23 10:05:59;;;;;;;8.65;4.25;;;359.30;2329.60;;;;;;5071234;28;20491;-80
2021/10/23 10:08:26;;;;;;;8.00;4.35;;;384.00;2329.60;;;;;;5071928;28;20020;-80
2021/10/23 10:10:54;;;;;;;15.98;5.40;;;384.00;2329.60;;;;;;5053807;28;20542;-80
2021/10/23 10:13:23;;;;;;;10.40;5.75;;;384.10;2329.60;;;;;;5072018;28;20531;-80
2021/10/23 10:15:51;;;;;;;12.32;5.00;;;384.10;2329.60;;;;;;5046945;28;20568;-79
2021/10/23 10:18:18;;;;;;;13.40;7.05;;;384.20;2329.60;;;;;;5053651;28;20065;-81
2021/10/23 10:20:49;;;;;;;8.40;5.13;;;384.20;2329.60;;;;;;5056712;28;20058;-80
2021/10/23 10:23:29;;;;;;;10.30;4.50;;;384.30;2329.60;;;;;;5049323;28;20033;-87
2021/10/23 10:26:26;;;;;;;8.57;4.22;;;384.30;2329.60;;;;;;5069306;28;20032;-81
2021/10/23 10:29:11;;;;;;;12.10;5.88;;;384.30;2329.60;;;;;;5054917;28;20119;-80
2021/10/23 10:32:13;;;;;;;10.30;5.18;;;384.30;2329.60;;;;;;5069766;28;20589;-80
2021/10/23 10:43:03;;;;;;;12.15;7.03;;;409.60;2355.20;;;;;;5015930;28;20052;-80
2021/10/23 10:45:46;;;;;;;17.73;10.60;;;409.70;2355.20;;;;;;5012850;28;20125;-79
2021/10/23 10:48:24;;;;;;;11.52;6.28;;;409.90;2355.20;;;;;;4991773;28;20076;-80
2021/10/23 10:51:05;;;;;;;10.38;5.28;;;384.90;2329.60;;;;;;4991413;28;20318;-79
2021/10/23 10:53:35;;;;;;;6.97;4.18;;;409.60;2355.20;;;;;;4999333;28;20017;-78
2021/10/23 10:56:07;;;;;;;7.35;4.30;;;409.70;2355.20;;;;;;5017243;28;20582;-79
2021/10/23 10:58:47;;;;;;;8.68;4.55;;;384.70;2329.60;;;;;;5005701;28;20448;-80
2021/10/23 11:01:25;;;;;;;11.27;4.20;;;384.80;2329.60;;;;;;4994996;28;20038;-79
2021/10/23 11:04:01;;;;;;;11.27;5.85;;;409.60;2355.20;;;;;;5020382;28;20040;-80
2021/10/23 11:06:38;;;;;;;9.50;4.50;;;409.60;2355.20;;;;;;5017306;28;20068;-79
2021/10/23 11:09:26;;;;;;;10.23;4.57;;;409.80;2355.20;;;;;;5002641;28;20165;-79
2021/10/23 11:11:57;;;;;;;15.93;8.18;;;409.80;2355.20;;;;;;5001714;28;20034;-79
2021/10/23 11:16:57;;;;;;;17.77;10.77;;;384.90;2329.60;;;;;;5071140;28;20166;-80
2021/10/23 11:19:30;;;;;;;18.88;9.23;;;384.80;2329.60;;;;;;5073143;28;20527;-80
2021/10/23 11:22:01;;;;;;;21.75;10.80;;;384.80;2329.60;;;;;;5052542;28;20028;-80
2021/10/23 11:24:36;;;;;;;32.80;16.85;;;384.70;2329.60;;;;;;5069609;28;20033;-80
2021/10/23 11:27:02;;;;;;;14.00;6.72;;;384.80;2329.60;;;;;;5068898;28;20048;-80
2021/10/23 11:29:29;;;;;;;10.20;6.35;;;409.60;2355.20;;;;;;5072648;28;20067;-79
2021/10/23 11:31:59;;;;;;;9.98;6.55;;;384.90;2329.60;;;;;;5069415;28;20036;-79
2021/10/23 11:34:31;;;;;;;11.95;6.10;;;409.80;2355.20;;;;;;5066917;28;20065;-77
2021/10/23 11:37:10;;;;;;;16.67;7.03;;;410.10;2355.20;;;;;;5070713;28;20028;-80
2021/10/23 11:39:42;;;;;;;9.80;5.47;;;410.30;2355.20;;;;;;5054090;28;20038;-79
2021/10/23 11:42:45;;;;;;;8.25;5.03;;;410.20;2355.20;;;;;;5070327;28;20031;-79
2021/10/23 11:45:28;;;;;;;9.10;4.78;;;410.30;2355.20;;;;;;5036685;28;20431;-79
2021/10/23 11:47:56;;;;;;;10.77;4.93;;;410.40;2355.20;;;;;;5051854;28;20052;-79
2021/10/23 11:50:23;;;;;;;12.20;5.97;;;410.20;2355.20;;;;;;5052894;28;20463;-80
2021/10/23 11:52:54;;;;;;;17.15;6.38;;;410.40;2355.20;;;;;;5053391;28;20021;-80
2021/10/23 11:55:47;;;;;;;16.58;6.85;;;410.40;2355.20;;;;;;5059008;28;20081;-77
2021/10/23 11:58:18;;;;;;;10.02;4.90;;;410.40;2355.20;;;;;;5067688;28;20029;-79
2021/10/23 12:00:48;;;;;;;16.85;7.35;;;410.30;2355.20;;;;;;5073425;28;20103;-78
2021/10/23 12:03:16;;;;;;;26.70;10.80;;;410.40;2355.20;;;;;;5056618;28;20028;-77
2021/10/23 12:05:49;;;;;;;14.27;6.45;;;410.10;2355.20;;;;;;5053824;28;20020;-79
2021/10/23 12:08:18;;;;;;;15.23;7.57;;;409.90;2355.20;;;;;;5054859;28;20094;-80
2021/10/23 12:11:09;;;;;;;10.50;5.75;;;410.40;2355.20;;;;;;5058446;28;20450;-80
2021/10/23 12:13:47;;;;;;;17.80;8.20;;;435.60;2355.20;;;;;;5055290;28;20021;-80
2021/10/23 12:16:15;;;;;;;11.20;5.47;;;461.00;2380.80;;;;;;5072388;28;20091;-78
2021/10/23 12:18:45;;;;;;;10.50;4.82;;;461.10;2380.80;;;;;;5055684;28;20044;-78
2021/10/23 12:21:20;;;;;;;12.88;7.75;;;436.00;2355.20;;;;;;5074406;28;20028;-77
2021/10/23 12:23:56;;;;;;;11.88;6.00;;;435.50;2355.20;;;;;;5073387;28;20099;-77
2021/10/23 12:26:27;;;;;;;13.50;6.40;;;435.20;2355.20;;;;;;5058499;28;20071;-77